createdAt,value
2023-02-04T05:43:51.487Z,9.30
2023-02-04T05:46:18.593Z,10.70
2023-02-04T05:48:45.281Z,12.20
2023-02-04T05:51:11.895Z,10.00
2023-02-04T05:53:40.087Z,8.90
2023-02-04T05:56:07.486Z,10.10
2023-02-04T05:58:34.461Z,9.60
2023-02-04T08:13:35.874Z,15.70
2023-02-04T08:16:32.325Z,13.60
2023-02-04T08:19:12.027Z,13.30
2023-02-04T08:21:53.943Z,14.30
2023-02-04T08:27:53.188Z,12.20
2023-02-04T08:31:15.644Z,11.80
2023-02-04T08:34:05.030Z,11.70
2023-02-04T08:36:50.450Z,11.00
2023-02-04T08:39:30.365Z,14.00
2023-02-04T08:42:02.340Z,13.20
2023-02-04T08:44:44.046Z,11.20
2023-02-04T08:47:27.956Z,12.40
2023-02-04T08:49:57.021Z,10.30
2023-02-04T08:52:37.279Z,10.20
2023-02-04T08:55:14.214Z,10.10
2023-02-04T08:58:03.720Z,9.50
2023-02-04T09:04:43.129Z,8.30
2023-02-04T09:08:21.961Z,8.30
2023-02-04T09:11:20.771Z,8.80
2023-02-04T09:13:53.672Z,10.70
2023-02-04T09:16:34.948Z,11.90
2023-02-04T09:19:08.530Z,11.70
2023-02-04T09:24:12.477Z,11.50
2023-02-04T09:26:49.435Z,12.20
2023-02-04T09:29:22.053Z,12.00
2023-02-04T09:31:53.631Z,11.10
2023-02-04T09:34:23.820Z,10.70
2023-02-04T09:36:55.441Z,10.10
2023-02-04T09:39:33.723Z,9.50
2023-02-04T09:42:11.622Z,10.10
2023-02-04T09:44:48.159Z,9.60
2023-02-04T09:47:17.572Z,11.90
2023-02-04T09:49:53.328Z,10.90
2023-02-04T09:52:25.173Z,11.20
2023-02-04T09:55:02.533Z,11.60
2023-02-04T09:57:34.063Z,11.90
2023-02-04T10:00:17.192Z,11.30
2023-02-04T10:02:55.638Z,12.20
2023-02-04T10:05:32.839Z,10.40
2023-02-04T10:08:19.930Z,12.10
2023-02-04T10:10:52.061Z,11.30
2023-02-04T10:13:34.111Z,10.90
2023-02-04T10:16:15.407Z,12.00
2023-02-04T10:18:47.176Z,11.00
2023-02-04T10:23:51.338Z,11.40
2023-02-04T10:26:29.808Z,10.50
2023-02-04T10:29:32.434Z,10.40
2023-02-04T10:32:37.642Z,8.00
2023-02-04T10:35:17.386Z,9.10
2023-02-04T10:37:50.947Z,8.90
2023-02-04T10:40:35.779Z,8.80
2023-02-04T10:43:12.582Z,11.50
2023-02-04T10:45:49.306Z,9.70
2023-02-04T10:48:27.826Z,7.20
2023-02-04T10:51:01.072Z,7.20
2023-02-04T10:54:03.036Z,6.80
2023-02-04T10:56:38.137Z,6.50
2023-02-04T10:59:09.824Z,7.20
2023-02-04T11:01:43.984Z,7.60
2023-02-04T11:04:18.632Z,6.00
2023-02-04T11:06:54.550Z,7.50
2023-02-04T11:09:26.740Z,6.80
2023-02-04T11:12:00.928Z,5.70
2023-02-04T11:14:32.604Z,5.40
2023-02-04T11:17:05.693Z,5.00
2023-02-04T11:19:46.751Z,6.50
